Metar z pełnej godziny Komunikat METAR ze strony awiacja.imgw.pl Metar G00 EPWR METAR EPWR 241900Z 24004KT CAVOK 14/07 Q1013 =